Pagina principală
METAR-TAF:

METAR-TAF

Aeroporturi :

Philip Billard Municipal Airport

Topeka, Kansas, Statele Unite ale Americii

Latitudine: 39-04-21N, longitudine: 095-37-33W, elevație: 268 m

Observații meteo curente

Raportul a fost făcut în urmă cu 39 de minute, la 07:53 UTC
Vânt 5 kt de la Nord
Temperatură 23°C
Umiditate 69%
Presiune 1015 hPa
Vizibilitate: 16.1 km
Cer senin

METAR: KTOP 140753Z AUTO 36005KT 10SM CLR 23/17 A2996 RMK AO2 SLP132 T02330172 $

Ora: 03:32 (08:32 UTC)

Prognoză

Raportul a fost făcut în urmă cu 3 ore și 12 de minute, la 05:20 UTC
Prognoză valabilă de la 14 ora 06 UTC la 15 ora 06 UTC
Vânt 8 kt de la Nord/Nord-vest
Vizibilitate: 10 km
Nori puțini la o înălțime de 10000 picior
De la 14 ora 1600 UTC
Vânt 9 kt de la Est
Vizibilitate: 10 km
Nori puțini la o înălțime de 5000 picior
Nori împrăștiați la o înălțime de 15000 picior

TAF: KTOP 140520Z 1406/1506 34008KT P6SM FEW100 FM141600 08009KT P6SM FEW050 SCT150

Observații și prognoze meteo pentru peste 4.000 de aeroporturi (rapoarte METAR și TAF).

Stațiile disponibile sunt reprezentate pe hartă prin puncte galbene și roșii.

Țineți indicatorul mouse-ului pe punctul dorit pentru a vedea denumirea stației.

Apoi, faceți clic pentru a vedea observațiile și prognozele meteorologice.

Pentru a schimba harta: Pentru mărire, faceți clic pe butoanele verzi cu cruce neagră; pentru micșorare, pe butonul verde cu o liniuță; pentru hărți învecinate, pe săgețile verzi.


METAR-TAF: